Dillon, CO

1:20 AM MDT on May 07, 2015 (GMT -0600)
Swan River Valley | | Change Station
CLOSE
Current Station
Personal Weather Station
Location: Breckenridge, CO
Elevation: 9275 ft
Nearby Weather Stations

Elev 9275 ft 39.53 °N, 106.03 °W | Updated 12 seconds ago

Mostly Cloudy
Mostly Cloudy
34.7 °F
Feels Like 35 °F
N
0.2
Wind Variable Wind from SE
Gusts 2.5 mph

Today
High -- | Low -- °F
--% Chance of Precip.
Yesterday
High -- | Low -- °F
Precip. -- in
5:58 AM 8:03 PM
Waning Gibbous, 90% visible
Pressure 29.67 in
Visibility 10.0 miles
Clouds Scattered Clouds 9500 ft
Windchill 35 °F
Dew Point 30 °F
Humidity 84%
Rainfall 0.00 in
Snow Depth Not available.
UV 0.0 out of 12
Pollen 4.50 out of 12
Air Quality Not available.
Flu Activity Sporadic
METAR KLXV 070653Z AUTO 04005KT 10SM SCT095 01/M01 A2999 RMK AO2 SLP046 T00061006 400890000

More Conditions Fewer Conditions

Pressure 29.67 in
Visibility 10.0 miles
Clouds Scattered Clouds 9500 ft
Windchill 35 °F
Dew Point 30 °F
Humidity 84%
Rainfall 0.00 in
Snow Depth Not available.
UV 0.0 out of 12
Pollen 4.50 out of 12
Air Quality Not available.
Flu Activity Sporadic
METAR KLXV 070653Z AUTO 04005KT 10SM SCT095 01/M01 A2999 RMK AO2 SLP046 T00061006 400890000

More Conditions Fewer Conditions

10-Day Weather Forecast

Almanac

Astronomy

May. 07, 2015 Rise Set
Actual Time
Civil Twilight
Nautical Twilight
Astronomical Twilight
Moon
Length of Visible Light
Length of Day
Tomorrow will be .
, % of the Moon is Illuminated

Today's Extremes

State Highs State Lows

Community

WunderPhotos

Upload Photos

1,819,126 photos uploaded!

WunderBlogs® & News

Nearby

Air Quality

  Air Quality AQ Index Pollutant
Not available.

Snow Depth

Station Depth Elevation

Earthquake Activity

City Distance Mag. Time & Date
Minimum magnitude displayed is 2.5.

Coastal Water Temperatures

Place Temperature

Stations

Nearby Weather Stations

Station Location Temp. Windchill Dew Point Humidity Wind Precip. Elev Updated Type